sensor_id;sensor_type;location;lat;lon;timestamp;P1;durP1;ratioP1;P2;durP2;ratioP2
8982;SDS011;20979;59.850;10.660;2023-03-08T00:00:59;0.60;;;0.60;;
8982;SDS011;20979;59.850;10.660;2023-03-08T00:03:27;0.70;;;0.70;;
8982;SDS011;20979;59.850;10.660;2023-03-08T00:05:54;0.50;;;0.50;;
8982;SDS011;20979;59.850;10.660;2023-03-08T00:08:22;1.10;;;1.00;;
8982;SDS011;20979;59.850;10.660;2023-03-08T00:10:49;1.20;;;0.70;;
8982;SDS011;20979;59.850;10.660;2023-03-08T00:13:16;1.23;;;0.70;;
8982;SDS011;20979;59.850;10.660;2023-03-08T00:15:45;0.97;;;0.60;;
8982;SDS011;20979;59.850;10.660;2023-03-08T00:18:12;0.93;;;0.87;;
8982;SDS011;20979;59.850;10.660;2023-03-08T00:20:40;1.00;;;0.70;;
8982;SDS011;20979;59.850;10.660;2023-03-08T00:23:07;1.03;;;0.70;;
8982;SDS011;20979;59.850;10.660;2023-03-08T00:25:34;0.90;;;0.90;;
8982;SDS011;20979;59.850;10.660;2023-03-08T00:28:02;0.60;;;0.60;;
8982;SDS011;20979;59.850;10.660;2023-03-08T00:30:29;3.43;;;0.87;;
8982;SDS011;20979;59.850;10.660;2023-03-08T00:32:58;0.47;;;0.47;;
8982;SDS011;20979;59.850;10.660;2023-03-08T00:35:25;0.93;;;0.93;;
8982;SDS011;20979;59.850;10.660;2023-03-08T00:37:53;0.60;;;0.60;;
8982;SDS011;20979;59.850;10.660;2023-03-08T00:40:20;1.00;;;0.57;;
8982;SDS011;20979;59.850;10.660;2023-03-08T00:42:47;0.70;;;0.70;;
8982;SDS011;20979;59.850;10.660;2023-03-08T00:45:15;0.70;;;0.70;;
8982;SDS011;20979;59.850;10.660;2023-03-08T00:47:42;0.77;;;0.50;;
8982;SDS011;20979;59.850;10.660;2023-03-08T00:50:11;1.17;;;0.70;;
8982;SDS011;20979;59.850;10.660;2023-03-08T00:52:38;0.57;;;0.57;;
8982;SDS011;20979;59.850;10.660;2023-03-08T00:55:06;0.73;;;0.70;;
8982;SDS011;20979;59.850;10.660;2023-03-08T00:57:34;0.60;;;0.60;;
8982;SDS011;20979;59.850;10.660;2023-03-08T01:00:01;0.80;;;0.60;;
8982;SDS011;20979;59.850;10.660;2023-03-08T01:02:32;0.60;;;0.60;;
8982;SDS011;20979;59.850;10.660;2023-03-08T01:04:59;0.50;;;0.50;;
8982;SDS011;20979;59.850;10.660;2023-03-08T01:07:28;0.73;;;0.60;;
8982;SDS011;20979;59.850;10.660;2023-03-08T01:09:56;0.50;;;0.50;;
8982;SDS011;20979;59.850;10.660;2023-03-08T01:12:23;2.97;;;0.67;;
8982;SDS011;20979;59.850;10.660;2023-03-08T01:14:51;1.57;;;0.80;;
8982;SDS011;20979;59.850;10.660;2023-03-08T01:17:18;0.63;;;0.63;;
8982;SDS011;20979;59.850;10.660;2023-03-08T01:19:46;1.67;;;0.60;;
8982;SDS011;20979;59.850;10.660;2023-03-08T01:22:13;0.73;;;0.73;;
8982;SDS011;20979;59.850;10.660;2023-03-08T01:24:44;0.80;;;0.73;;
8982;SDS011;20979;59.850;10.660;2023-03-08T01:27:11;0.50;;;0.50;;
8982;SDS011;20979;59.850;10.660;2023-03-08T01:29:40;2.27;;;0.60;;
8982;SDS011;20979;59.850;10.660;2023-03-08T01:32:07;0.50;;;0.50;;
8982;SDS011;20979;59.850;10.660;2023-03-08T01:34:35;0.50;;;0.50;;
8982;SDS011;20979;59.850;10.660;2023-03-08T01:37:02;1.10;;;1.00;;
8982;SDS011;20979;59.850;10.660;2023-03-08T01:39:29;2.57;;;0.80;;
8982;SDS011;20979;59.850;10.660;2023-03-08T01:41:58;0.87;;;0.80;;
8982;SDS011;20979;59.850;10.660;2023-03-08T01:47:15;1.97;;;0.80;;
8982;SDS011;20979;59.850;10.660;2023-03-08T01:49:43;2.43;;;0.90;;
8982;SDS011;20979;59.850;10.660;2023-03-08T01:52:11;1.63;;;0.60;;
8982;SDS011;20979;59.850;10.660;2023-03-08T01:54:41;0.50;;;0.50;;
8982;SDS011;20979;59.850;10.660;2023-03-08T01:57:14;0.53;;;0.53;;
8982;SDS011;20979;59.850;10.660;2023-03-08T01:59:42;0.77;;;0.50;;
8982;SDS011;20979;59.850;10.660;2023-03-08T02:02:10;0.50;;;0.50;;
8982;SDS011;20979;59.850;10.660;2023-03-08T02:04:37;0.70;;;0.60;;
8982;SDS011;20979;59.850;10.660;2023-03-08T02:07:05;0.40;;;0.40;;
8982;SDS011;20979;59.850;10.660;2023-03-08T02:09:33;0.50;;;0.50;;
8982;SDS011;20979;59.850;10.660;2023-03-08T02:12:00;0.50;;;0.50;;
8982;SDS011;20979;59.850;10.660;2023-03-08T02:14:31;1.70;;;0.60;;
8982;SDS011;20979;59.850;10.660;2023-03-08T02:16:59;0.40;;;0.40;;
8982;SDS011;20979;59.850;10.660;2023-03-08T02:19:28;1.13;;;0.70;;
8982;SDS011;20979;59.850;10.660;2023-03-08T02:21:59;0.70;;;0.70;;
8982;SDS011;20979;59.850;10.660;2023-03-08T02:24:34;1.10;;;1.00;;
8982;SDS011;20979;59.850;10.660;2023-03-08T02:27:03;1.13;;;1.07;;
8982;SDS011;20979;59.850;10.660;2023-03-08T02:29:32;0.80;;;0.80;;
8982;SDS011;20979;59.850;10.660;2023-03-08T02:31:59;1.03;;;0.97;;
8982;SDS011;20979;59.850;10.660;2023-03-08T02:34:26;1.00;;;0.90;;
8982;SDS011;20979;59.850;10.660;2023-03-08T02:36:54;0.60;;;0.60;;
8982;SDS011;20979;59.850;10.660;2023-03-08T02:39:21;0.70;;;0.70;;
8982;SDS011;20979;59.850;10.660;2023-03-08T02:41:50;1.33;;;0.73;;
8982;SDS011;20979;59.850;10.660;2023-03-08T02:44:17;1.30;;;0.60;;
8982;SDS011;20979;59.850;10.660;2023-03-08T02:46:45;0.37;;;0.37;;
8982;SDS011;20979;59.850;10.660;2023-03-08T02:49:12;0.67;;;0.43;;
8982;SDS011;20979;59.850;10.660;2023-03-08T02:51:39;1.20;;;0.73;;
8982;SDS011;20979;59.850;10.660;2023-03-08T02:54:07;0.80;;;0.80;;
8982;SDS011;20979;59.850;10.660;2023-03-08T02:56:34;0.60;;;0.60;;
8982;SDS011;20979;59.850;10.660;2023-03-08T02:59:04;1.10;;;0.60;;
8982;SDS011;20979;59.850;10.660;2023-03-08T03:01:31;0.83;;;0.70;;
8982;SDS011;20979;59.850;10.660;2023-03-08T03:03:58;0.60;;;0.60;;
8982;SDS011;20979;59.850;10.660;2023-03-08T03:06:26;0.73;;;0.73;;
8982;SDS011;20979;59.850;10.660;2023-03-08T03:08:53;0.63;;;0.63;;
8982;SDS011;20979;59.850;10.660;2023-03-08T03:11:21;0.60;;;0.60;;
8982;SDS011;20979;59.850;10.660;2023-03-08T03:13:52;0.60;;;0.60;;
8982;SDS011;20979;59.850;10.660;2023-03-08T03:16:22;0.70;;;0.63;;
8982;SDS011;20979;59.850;10.660;2023-03-08T03:18:50;0.67;;;0.67;;
8982;SDS011;20979;59.850;10.660;2023-03-08T03:21:18;1.07;;;0.97;;
8982;SDS011;20979;59.850;10.660;2023-03-08T03:23:45;0.60;;;0.60;;
8982;SDS011;20979;59.850;10.660;2023-03-08T03:26:13;0.53;;;0.53;;
8982;SDS011;20979;59.850;10.660;2023-03-08T03:28:41;0.80;;;0.80;;
8982;SDS011;20979;59.850;10.660;2023-03-08T03:31:09;0.50;;;0.50;;
8982;SDS011;20979;59.850;10.660;2023-03-08T03:33:38;0.53;;;0.53;;
8982;SDS011;20979;59.850;10.660;2023-03-08T03:36:06;0.73;;;0.60;;
8982;SDS011;20979;59.850;10.660;2023-03-08T03:38:34;0.60;;;0.60;;
8982;SDS011;20979;59.850;10.660;2023-03-08T03:41:02;0.60;;;0.60;;
8982;SDS011;20979;59.850;10.660;2023-03-08T03:43:30;0.60;;;0.60;;
8982;SDS011;20979;59.850;10.660;2023-03-08T03:45:58;0.60;;;0.60;;
8982;SDS011;20979;59.850;10.660;2023-03-08T03:48:26;0.60;;;0.60;;
8982;SDS011;20979;59.850;10.660;2023-03-08T03:50:55;1.53;;;0.70;;
8982;SDS011;20979;59.850;10.660;2023-03-08T03:53:23;0.50;;;0.50;;
8982;SDS011;20979;59.850;10.660;2023-03-08T03:55:51;0.50;;;0.50;;
8982;SDS011;20979;59.850;10.660;2023-03-08T03:58:18;0.70;;;0.70;;
8982;SDS011;20979;59.850;10.660;2023-03-08T04:00:46;1.67;;;0.83;;
8982;SDS011;20979;59.850;10.660;2023-03-08T04:03:13;1.33;;;0.87;;
8982;SDS011;20979;59.850;10.660;2023-03-08T04:05:41;0.70;;;0.70;;
8982;SDS011;20979;59.850;10.660;2023-03-08T04:08:09;3.27;;;0.70;;
8982;SDS011;20979;59.850;10.660;2023-03-08T04:10:37;0.60;;;0.60;;
8982;SDS011;20979;59.850;10.660;2023-03-08T04:13:04;1.33;;;0.80;;
8982;SDS011;20979;59.850;10.660;2023-03-08T04:15:31;1.03;;;0.67;;
8982;SDS011;20979;59.850;10.660;2023-03-08T04:17:59;0.70;;;0.70;;
8982;SDS011;20979;59.850;10.660;2023-03-08T04:20:26;0.60;;;0.60;;
8982;SDS011;20979;59.850;10.660;2023-03-08T04:22:53;0.70;;;0.70;;
8982;SDS011;20979;59.850;10.660;2023-03-08T04:25:22;0.60;;;0.60;;
8982;SDS011;20979;59.850;10.660;2023-03-08T04:27:50;1.20;;;0.60;;
8982;SDS011;20979;59.850;10.660;2023-03-08T04:30:17;0.70;;;0.70;;
8982;SDS011;20979;59.850;10.660;2023-03-08T04:32:44;0.93;;;0.73;;
8982;SDS011;20979;59.850;10.660;2023-03-08T04:35:12;0.83;;;0.70;;
8982;SDS011;20979;59.850;10.660;2023-03-08T04:37:39;1.80;;;0.73;;
8982;SDS011;20979;59.850;10.660;2023-03-08T04:40:10;0.57;;;0.57;;
8982;SDS011;20979;59.850;10.660;2023-03-08T04:42:39;0.70;;;0.70;;
8982;SDS011;20979;59.850;10.660;2023-03-08T04:45:07;0.73;;;0.73;;
8982;SDS011;20979;59.850;10.660;2023-03-08T04:47:35;0.70;;;0.70;;
8982;SDS011;20979;59.850;10.660;2023-03-08T04:50:02;2.40;;;0.70;;
8982;SDS011;20979;59.850;10.660;2023-03-08T04:52:30;0.70;;;0.70;;
8982;SDS011;20979;59.850;10.660;2023-03-08T04:54:57;1.33;;;0.80;;
8982;SDS011;20979;59.850;10.660;2023-03-08T04:57:24;1.07;;;0.80;;
8982;SDS011;20979;59.850;10.660;2023-03-08T04:59:53;1.70;;;0.90;;
8982;SDS011;20979;59.850;10.660;2023-03-08T05:02:21;1.13;;;1.00;;
8982;SDS011;20979;59.850;10.660;2023-03-08T05:04:48;1.60;;;0.87;;
8982;SDS011;20979;59.850;10.660;2023-03-08T05:07:15;1.63;;;1.40;;
8982;SDS011;20979;59.850;10.660;2023-03-08T05:09:43;2.13;;;1.20;;
8982;SDS011;20979;59.850;10.660;2023-03-08T05:12:10;1.90;;;0.93;;
8982;SDS011;20979;59.850;10.660;2023-03-08T05:14:38;0.80;;;0.80;;
8982;SDS011;20979;59.850;10.660;2023-03-08T05:17:07;1.07;;;1.07;;
8982;SDS011;20979;59.850;10.660;2023-03-08T05:19:34;2.10;;;0.97;;
8982;SDS011;20979;59.850;10.660;2023-03-08T05:22:01;2.17;;;0.80;;
8982;SDS011;20979;59.850;10.660;2023-03-08T05:24:30;3.13;;;1.20;;
8982;SDS011;20979;59.850;10.660;2023-03-08T05:26:57;4.03;;;1.30;;
8982;SDS011;20979;59.850;10.660;2023-03-08T05:29:24;2.30;;;1.10;;
8982;SDS011;20979;59.850;10.660;2023-03-08T05:31:52;3.43;;;1.43;;
8982;SDS011;20979;59.850;10.660;2023-03-08T05:34:21;1.43;;;1.10;;
8982;SDS011;20979;59.850;10.660;2023-03-08T05:36:48;4.00;;;1.10;;
8982;SDS011;20979;59.850;10.660;2023-03-08T05:39:15;3.23;;;1.23;;
8982;SDS011;20979;59.850;10.660;2023-03-08T05:41:43;1.53;;;1.00;;
8982;SDS011;20979;59.850;10.660;2023-03-08T05:44:10;2.80;;;1.20;;
8982;SDS011;20979;59.850;10.660;2023-03-08T05:46:37;1.60;;;1.50;;
8982;SDS011;20979;59.850;10.660;2023-03-08T05:49:05;3.97;;;2.40;;
8982;SDS011;20979;59.850;10.660;2023-03-08T05:51:34;1.93;;;1.57;;
8982;SDS011;20979;59.850;10.660;2023-03-08T05:54:01;1.23;;;1.10;;
8982;SDS011;20979;59.850;10.660;2023-03-08T05:56:29;1.20;;;1.20;;
8982;SDS011;20979;59.850;10.660;2023-03-08T05:58:56;2.00;;;1.10;;
8982;SDS011;20979;59.850;10.660;2023-03-08T06:01:24;1.50;;;1.30;;
8982;SDS011;20979;59.850;10.660;2023-03-08T06:03:53;1.30;;;1.20;;
8982;SDS011;20979;59.850;10.660;2023-03-08T06:06:21;3.43;;;1.37;;
8982;SDS011;20979;59.850;10.660;2023-03-08T06:08:50;1.50;;;1.40;;
8982;SDS011;20979;59.850;10.660;2023-03-08T06:11:18;2.30;;;1.83;;
8982;SDS011;20979;59.850;10.660;2023-03-08T06:13:45;1.93;;;1.80;;
8982;SDS011;20979;59.850;10.660;2023-03-08T06:16:12;2.10;;;1.47;;
8982;SDS011;20979;59.850;10.660;2023-03-08T06:18:40;3.30;;;1.73;;
8982;SDS011;20979;59.850;10.660;2023-03-08T06:21:09;1.83;;;1.50;;
8982;SDS011;20979;59.850;10.660;2023-03-08T06:23:37;4.03;;;1.50;;
8982;SDS011;20979;59.850;10.660;2023-03-08T06:26:06;1.47;;;1.37;;
8982;SDS011;20979;59.850;10.660;2023-03-08T06:28:34;2.00;;;1.50;;
8982;SDS011;20979;59.850;10.660;2023-03-08T06:31:04;4.63;;;2.00;;
8982;SDS011;20979;59.850;10.660;2023-03-08T06:33:32;3.13;;;1.60;;
8982;SDS011;20979;59.850;10.660;2023-03-08T06:36:00;7.40;;;4.03;;
8982;SDS011;20979;59.850;10.660;2023-03-08T06:38:28;3.33;;;2.30;;
8982;SDS011;20979;59.850;10.660;2023-03-08T06:40:56;10.43;;;1.97;;
8982;SDS011;20979;59.850;10.660;2023-03-08T06:43:25;5.97;;;1.33;;
8982;SDS011;20979;59.850;10.660;2023-03-08T06:45:52;6.30;;;1.60;;
8982;SDS011;20979;59.850;10.660;2023-03-08T06:48:19;4.73;;;2.13;;
8982;SDS011;20979;59.850;10.660;2023-03-08T06:50:47;5.37;;;1.70;;
8982;SDS011;20979;59.850;10.660;2023-03-08T06:53:14;4.20;;;1.50;;
8982;SDS011;20979;59.850;10.660;2023-03-08T06:55:42;2.03;;;1.30;;
8982;SDS011;20979;59.850;10.660;2023-03-08T06:58:09;2.97;;;1.87;;
8982;SDS011;20979;59.850;10.660;2023-03-08T07:00:38;5.63;;;2.30;;
8982;SDS011;20979;59.850;10.660;2023-03-08T07:03:05;2.47;;;1.33;;
8982;SDS011;20979;59.850;10.660;2023-03-08T07:05:32;2.47;;;1.07;;
8982;SDS011;20979;59.850;10.660;2023-03-08T07:08:00;6.33;;;1.73;;
8982;SDS011;20979;59.850;10.660;2023-03-08T07:10:27;5.07;;;1.70;;
8982;SDS011;20979;59.850;10.660;2023-03-08T07:12:54;4.57;;;1.73;;
8982;SDS011;20979;59.850;10.660;2023-03-08T07:15:22;2.87;;;1.40;;
8982;SDS011;20979;59.850;10.660;2023-03-08T07:17:52;2.80;;;1.37;;
8982;SDS011;20979;59.850;10.660;2023-03-08T07:20:20;4.77;;;1.53;;
8982;SDS011;20979;59.850;10.660;2023-03-08T07:22:48;2.20;;;1.70;;
8982;SDS011;20979;59.850;10.660;2023-03-08T07:25:16;3.60;;;1.80;;
8982;SDS011;20979;59.850;10.660;2023-03-08T07:27:44;4.03;;;2.47;;
8982;SDS011;20979;59.850;10.660;2023-03-08T07:30:12;7.57;;;3.00;;
8982;SDS011;20979;59.850;10.660;2023-03-08T07:32:41;7.03;;;3.37;;
8982;SDS011;20979;59.850;10.660;2023-03-08T07:35:11;7.03;;;2.67;;
8982;SDS011;20979;59.850;10.660;2023-03-08T07:37:38;6.83;;;2.80;;
8982;SDS011;20979;59.850;10.660;2023-03-08T07:40:06;8.37;;;2.00;;
8982;SDS011;20979;59.850;10.660;2023-03-08T07:42:35;2.80;;;1.97;;
8982;SDS011;20979;59.850;10.660;2023-03-08T07:45:02;6.27;;;2.20;;
8982;SDS011;20979;59.850;10.660;2023-03-08T07:47:29;8.80;;;3.17;;
8982;SDS011;20979;59.850;10.660;2023-03-08T07:49:57;5.53;;;2.30;;
8982;SDS011;20979;59.850;10.660;2023-03-08T07:52:27;6.40;;;2.37;;
8982;SDS011;20979;59.850;10.660;2023-03-08T07:54:54;4.77;;;2.07;;
8982;SDS011;20979;59.850;10.660;2023-03-08T07:57:22;7.30;;;2.17;;
8982;SDS011;20979;59.850;10.660;2023-03-08T07:59:49;5.00;;;2.70;;
8982;SDS011;20979;59.850;10.660;2023-03-08T08:02:17;6.97;;;2.10;;
8982;SDS011;20979;59.850;10.660;2023-03-08T08:04:44;7.73;;;2.40;;
8982;SDS011;20979;59.850;10.660;2023-03-08T08:07:12;4.20;;;2.00;;
8982;SDS011;20979;59.850;10.660;2023-03-08T08:09:41;19.20;;;3.60;;
8982;SDS011;20979;59.850;10.660;2023-03-08T08:12:09;5.87;;;2.27;;
8982;SDS011;20979;59.850;10.660;2023-03-08T08:14:36;6.80;;;2.60;;
8982;SDS011;20979;59.850;10.660;2023-03-08T08:17:04;9.23;;;2.73;;
8982;SDS011;20979;59.850;10.660;2023-03-08T08:19:31;10.23;;;3.57;;
8982;SDS011;20979;59.850;10.660;2023-03-08T08:21:59;8.63;;;2.47;;
8982;SDS011;20979;59.850;10.660;2023-03-08T08:24:26;6.10;;;1.90;;
8982;SDS011;20979;59.850;10.660;2023-03-08T08:26:56;3.33;;;1.90;;
8982;SDS011;20979;59.850;10.660;2023-03-08T08:29:23;3.03;;;2.00;;
8982;SDS011;20979;59.850;10.660;2023-03-08T08:31:51;5.47;;;1.90;;
8982;SDS011;20979;59.850;10.660;2023-03-08T08:34:18;3.97;;;1.60;;
8982;SDS011;20979;59.850;10.660;2023-03-08T08:36:46;5.37;;;1.80;;
8982;SDS011;20979;59.850;10.660;2023-03-08T08:39:13;5.70;;;1.90;;
8982;SDS011;20979;59.850;10.660;2023-03-08T08:41:41;7.53;;;1.70;;
8982;SDS011;20979;59.850;10.660;2023-03-08T08:44:10;3.20;;;1.60;;
8982;SDS011;20979;59.850;10.660;2023-03-08T08:46:37;4.40;;;1.70;;
8982;SDS011;20979;59.850;10.660;2023-03-08T08:49:05;3.73;;;1.53;;
8982;SDS011;20979;59.850;10.660;2023-03-08T08:51:32;2.93;;;1.43;;
8982;SDS011;20979;59.850;10.660;2023-03-08T08:53:59;4.77;;;1.17;;
8982;SDS011;20979;59.850;10.660;2023-03-08T08:56:27;2.63;;;1.20;;
8982;SDS011;20979;59.850;10.660;2023-03-08T08:58:55;1.27;;;1.03;;
8982;SDS011;20979;59.850;10.660;2023-03-08T09:01:24;1.37;;;1.27;;
8982;SDS011;20979;59.850;10.660;2023-03-08T09:03:53;3.97;;;1.20;;
8982;SDS011;20979;59.850;10.660;2023-03-08T09:06:21;2.90;;;1.37;;
8982;SDS011;20979;59.850;10.660;2023-03-08T09:08:48;3.03;;;1.20;;
8982;SDS011;20979;59.850;10.660;2023-03-08T09:11:16;3.50;;;1.23;;
8982;SDS011;20979;59.850;10.660;2023-03-08T09:13:43;3.83;;;1.20;;
8982;SDS011;20979;59.850;10.660;2023-03-08T09:16:15;2.67;;;1.23;;
8982;SDS011;20979;59.850;10.660;2023-03-08T09:18:45;5.50;;;1.40;;
8982;SDS011;20979;59.850;10.660;2023-03-08T09:21:12;3.13;;;1.20;;
8982;SDS011;20979;59.850;10.660;2023-03-08T09:23:40;1.93;;;1.20;;
8982;SDS011;20979;59.850;10.660;2023-03-08T09:26:07;2.17;;;1.20;;
8982;SDS011;20979;59.850;10.660;2023-03-08T09:28:35;2.07;;;1.23;;
8982;SDS011;20979;59.850;10.660;2023-03-08T09:31:04;1.30;;;1.20;;
8982;SDS011;20979;59.850;10.660;2023-03-08T09:33:36;1.73;;;1.23;;
8982;SDS011;20979;59.850;10.660;2023-03-08T09:36:05;1.27;;;1.10;;
8982;SDS011;20979;59.850;10.660;2023-03-08T09:38:32;1.70;;;1.30;;
8982;SDS011;20979;59.850;10.660;2023-03-08T09:41:04;1.13;;;1.00;;
8982;SDS011;20979;59.850;10.660;2023-03-08T09:43:36;1.20;;;1.10;;
8982;SDS011;20979;59.850;10.660;2023-03-08T09:46:08;1.23;;;1.13;;
8982;SDS011;20979;59.850;10.660;2023-03-08T09:48:38;1.97;;;1.00;;
8982;SDS011;20979;59.850;10.660;2023-03-08T09:51:10;2.93;;;1.03;;
8982;SDS011;20979;59.850;10.660;2023-03-08T09:53:38;4.57;;;2.50;;
8982;SDS011;20979;59.850;10.660;2023-03-08T09:56:19;2.67;;;1.80;;
8982;SDS011;20979;59.850;10.660;2023-03-08T09:58:48;3.13;;;1.60;;
8982;SDS011;20979;59.850;10.660;2023-03-08T10:01:20;3.43;;;1.70;;
8982;SDS011;20979;59.850;10.660;2023-03-08T10:06:40;0.93;;;0.90;;
8982;SDS011;20979;59.850;10.660;2023-03-08T10:09:14;3.30;;;1.10;;
8982;SDS011;20979;59.850;10.660;2023-03-08T10:11:46;1.53;;;0.83;;
8982;SDS011;20979;59.850;10.660;2023-03-08T10:14:16;0.73;;;0.70;;
8982;SDS011;20979;59.850;10.660;2023-03-08T10:16:46;2.23;;;0.90;;
8982;SDS011;20979;59.850;10.660;2023-03-08T10:19:16;2.30;;;1.20;;
8982;SDS011;20979;59.850;10.660;2023-03-08T10:21:47;5.23;;;1.40;;
8982;SDS011;20979;59.850;10.660;2023-03-08T10:24:15;1.47;;;1.00;;
8982;SDS011;20979;59.850;10.660;2023-03-08T10:26:44;3.10;;;1.17;;
8982;SDS011;20979;59.850;10.660;2023-03-08T10:29:12;1.40;;;1.10;;
8982;SDS011;20979;59.850;10.660;2023-03-08T10:31:41;3.43;;;1.37;;
8982;SDS011;20979;59.850;10.660;2023-03-08T10:34:12;3.70;;;1.20;;
8982;SDS011;20979;59.850;10.660;2023-03-08T10:36:48;2.33;;;1.20;;
8982;SDS011;20979;59.850;10.660;2023-03-08T10:39:16;7.13;;;1.30;;
8982;SDS011;20979;59.850;10.660;2023-03-08T10:41:44;5.90;;;1.13;;
8982;SDS011;20979;59.850;10.660;2023-03-08T10:44:13;3.50;;;1.00;;
8982;SDS011;20979;59.850;10.660;2023-03-08T10:46:46;5.90;;;1.30;;
8982;SDS011;20979;59.850;10.660;2023-03-08T10:49:14;1.17;;;0.90;;
8982;SDS011;20979;59.850;10.660;2023-03-08T10:51:52;0.67;;;0.67;;
8982;SDS011;20979;59.850;10.660;2023-03-08T10:54:19;4.03;;;0.90;;
8982;SDS011;20979;59.850;10.660;2023-03-08T10:56:50;1.50;;;1.00;;
8982;SDS011;20979;59.850;10.660;2023-03-08T10:59:19;1.07;;;0.87;;
8982;SDS011;20979;59.850;10.660;2023-03-08T11:01:52;4.83;;;1.23;;
8982;SDS011;20979;59.850;10.660;2023-03-08T11:04:21;0.80;;;0.80;;
8982;SDS011;20979;59.850;10.660;2023-03-08T11:06:48;3.83;;;0.83;;
8982;SDS011;20979;59.850;10.660;2023-03-08T11:09:19;4.60;;;0.80;;
8982;SDS011;20979;59.850;10.660;2023-03-08T11:11:47;0.70;;;0.70;;
8982;SDS011;20979;59.850;10.660;2023-03-08T11:14:14;1.40;;;0.80;;
8982;SDS011;20979;59.850;10.660;2023-03-08T11:16:47;4.13;;;2.53;;
8982;SDS011;20979;59.850;10.660;2023-03-08T11:19:25;1.10;;;1.00;;
8982;SDS011;20979;59.850;10.660;2023-03-08T11:21:56;3.30;;;1.13;;
8982;SDS011;20979;59.850;10.660;2023-03-08T11:24:32;2.90;;;1.50;;
8982;SDS011;20979;59.850;10.660;2023-03-08T11:27:05;5.03;;;1.30;;
8982;SDS011;20979;59.850;10.660;2023-03-08T11:29:39;1.77;;;0.80;;
8982;SDS011;20979;59.850;10.660;2023-03-08T11:32:11;2.43;;;0.63;;
8982;SDS011;20979;59.850;10.660;2023-03-08T11:34:44;1.87;;;0.63;;
8982;SDS011;20979;59.850;10.660;2023-03-08T11:37:14;1.30;;;1.00;;
8982;SDS011;20979;59.850;10.660;2023-03-08T11:39:44;2.17;;;0.70;;
8982;SDS011;20979;59.850;10.660;2023-03-08T11:42:15;2.17;;;0.80;;
8982;SDS011;20979;59.850;10.660;2023-03-08T11:44:50;2.83;;;1.10;;
8982;SDS011;20979;59.850;10.660;2023-03-08T11:47:29;1.97;;;0.93;;
8982;SDS011;20979;59.850;10.660;2023-03-08T11:50:00;2.20;;;0.97;;
8982;SDS011;20979;59.850;10.660;2023-03-08T11:52:33;1.23;;;0.80;;
8982;SDS011;20979;59.850;10.660;2023-03-08T11:55:06;1.33;;;0.70;;
8982;SDS011;20979;59.850;10.660;2023-03-08T11:57:37;0.60;;;0.60;;
8982;SDS011;20979;59.850;10.660;2023-03-08T12:00:11;0.80;;;0.57;;
8982;SDS011;20979;59.850;10.660;2023-03-08T12:02:43;3.07;;;1.00;;
8982;SDS011;20979;59.850;10.660;2023-03-08T12:05:13;1.93;;;0.80;;
8982;SDS011;20979;59.850;10.660;2023-03-08T12:07:44;0.53;;;0.53;;
8982;SDS011;20979;59.850;10.660;2023-03-08T12:10:17;1.67;;;0.90;;
8982;SDS011;20979;59.850;10.660;2023-03-08T12:12:47;4.20;;;1.50;;
8982;SDS011;20979;59.850;10.660;2023-03-08T12:15:18;2.63;;;0.80;;
8982;SDS011;20979;59.850;10.660;2023-03-08T12:17:48;2.30;;;0.60;;
8982;SDS011;20979;59.850;10.660;2023-03-08T12:20:16;2.17;;;0.60;;
8982;SDS011;20979;59.850;10.660;2023-03-08T12:22:44;1.77;;;0.70;;
8982;SDS011;20979;59.850;10.660;2023-03-08T12:25:20;0.60;;;0.50;;
8982;SDS011;20979;59.850;10.660;2023-03-08T12:27:49;0.53;;;0.50;;
8982;SDS011;20979;59.850;10.660;2023-03-08T12:30:22;1.33;;;0.60;;
8982;SDS011;20979;59.850;10.660;2023-03-08T12:32:52;1.13;;;0.60;;
8982;SDS011;20979;59.850;10.660;2023-03-08T12:35:29;0.50;;;0.50;;
8982;SDS011;20979;59.850;10.660;2023-03-08T12:37:57;1.60;;;0.80;;
8982;SDS011;20979;59.850;10.660;2023-03-08T12:40:28;1.33;;;0.90;;
8982;SDS011;20979;59.850;10.660;2023-03-08T12:43:02;1.40;;;0.70;;
8982;SDS011;20979;59.850;10.660;2023-03-08T12:45:30;0.93;;;0.67;;
8982;SDS011;20979;59.850;10.660;2023-03-08T12:48:00;1.77;;;0.87;;
8982;SDS011;20979;59.850;10.660;2023-03-08T12:50:28;1.27;;;0.50;;
8982;SDS011;20979;59.850;10.660;2023-03-08T12:52:56;0.50;;;0.50;;
8982;SDS011;20979;59.850;10.660;2023-03-08T12:55:24;0.60;;;0.50;;
8982;SDS011;20979;59.850;10.660;2023-03-08T12:57:58;0.87;;;0.47;;
8982;SDS011;20979;59.850;10.660;2023-03-08T13:00:27;0.70;;;0.60;;
8982;SDS011;20979;59.850;10.660;2023-03-08T13:02:58;2.03;;;0.50;;
8982;SDS011;20979;59.850;10.660;2023-03-08T13:05:30;2.47;;;0.60;;
8982;SDS011;20979;59.850;10.660;2023-03-08T13:08:02;2.07;;;0.63;;
8982;SDS011;20979;59.850;10.660;2023-03-08T13:10:31;1.80;;;0.40;;
8982;SDS011;20979;59.850;10.660;2023-03-08T13:13:05;0.30;;;0.30;;
8982;SDS011;20979;59.850;10.660;2023-03-08T13:15:39;1.93;;;0.73;;
8982;SDS011;20979;59.850;10.660;2023-03-08T13:18:10;3.10;;;0.70;;
8982;SDS011;20979;59.850;10.660;2023-03-08T13:20:50;1.10;;;0.60;;
8982;SDS011;20979;59.850;10.660;2023-03-08T13:23:22;0.90;;;0.90;;
8982;SDS011;20979;59.850;10.660;2023-03-08T13:25:55;1.27;;;0.50;;
8982;SDS011;20979;59.850;10.660;2023-03-08T13:28:26;0.67;;;0.40;;
8982;SDS011;20979;59.850;10.660;2023-03-08T13:30:55;0.63;;;0.30;;
8982;SDS011;20979;59.850;10.660;2023-03-08T13:33:24;1.43;;;0.60;;
8982;SDS011;20979;59.850;10.660;2023-03-08T13:35:55;3.67;;;0.53;;
8982;SDS011;20979;59.850;10.660;2023-03-08T13:38:23;1.77;;;0.60;;
8982;SDS011;20979;59.850;10.660;2023-03-08T13:40:52;2.07;;;0.60;;
8982;SDS011;20979;59.850;10.660;2023-03-08T13:43:19;0.30;;;0.30;;
8982;SDS011;20979;59.850;10.660;2023-03-08T13:45:50;1.63;;;0.50;;
8982;SDS011;20979;59.850;10.660;2023-03-08T13:48:18;0.57;;;0.50;;
8982;SDS011;20979;59.850;10.660;2023-03-08T13:50:46;3.67;;;0.60;;
8982;SDS011;20979;59.850;10.660;2023-03-08T13:53:16;0.43;;;0.43;;
8982;SDS011;20979;59.850;10.660;2023-03-08T13:55:44;0.67;;;0.50;;
8982;SDS011;20979;59.850;10.660;2023-03-08T13:58:14;1.03;;;0.40;;
8982;SDS011;20979;59.850;10.660;2023-03-08T14:00:55;2.40;;;0.70;;
8982;SDS011;20979;59.850;10.660;2023-03-08T14:03:25;1.47;;;0.53;;
8982;SDS011;20979;59.850;10.660;2023-03-08T14:05:53;0.60;;;0.60;;
8982;SDS011;20979;59.850;10.660;2023-03-08T14:08:21;0.83;;;0.50;;
8982;SDS011;20979;59.850;10.660;2023-03-08T14:10:50;2.87;;;0.70;;
8982;SDS011;20979;59.850;10.660;2023-03-08T14:13:18;0.50;;;0.40;;
8982;SDS011;20979;59.850;10.660;2023-03-08T14:15:47;2.53;;;0.50;;
8982;SDS011;20979;59.850;10.660;2023-03-08T14:18:19;0.77;;;0.57;;
8982;SDS011;20979;59.850;10.660;2023-03-08T14:20:59;1.60;;;0.53;;
8982;SDS011;20979;59.850;10.660;2023-03-08T14:23:26;0.50;;;0.50;;
8982;SDS011;20979;59.850;10.660;2023-03-08T14:25:57;1.50;;;1.20;;
8982;SDS011;20979;59.850;10.660;2023-03-08T14:28:35;7.27;;;2.70;;
8982;SDS011;20979;59.850;10.660;2023-03-08T14:31:02;1.83;;;1.10;;
8982;SDS011;20979;59.850;10.660;2023-03-08T14:33:30;5.80;;;0.70;;
8982;SDS011;20979;59.850;10.660;2023-03-08T14:35:59;0.50;;;0.47;;
8982;SDS011;20979;59.850;10.660;2023-03-08T14:38:27;0.60;;;0.60;;
8982;SDS011;20979;59.850;10.660;2023-03-08T14:40:55;2.40;;;0.57;;
8982;SDS011;20979;59.850;10.660;2023-03-08T14:43:23;1.40;;;0.70;;
8982;SDS011;20979;59.850;10.660;2023-03-08T14:45:51;2.20;;;0.50;;
8982;SDS011;20979;59.850;10.660;2023-03-08T14:48:23;0.80;;;0.57;;
8982;SDS011;20979;59.850;10.660;2023-03-08T14:50:53;1.67;;;0.70;;
8982;SDS011;20979;59.850;10.660;2023-03-08T14:53:26;0.40;;;0.40;;
8982;SDS011;20979;59.850;10.660;2023-03-08T14:55:54;3.47;;;1.50;;
8982;SDS011;20979;59.850;10.660;2023-03-08T14:58:23;4.17;;;1.50;;
8982;SDS011;20979;59.850;10.660;2023-03-08T15:00:51;2.53;;;0.93;;
8982;SDS011;20979;59.850;10.660;2023-03-08T15:03:19;2.47;;;1.33;;